Time;durP1;ratioP1;P1;durP2;ratioP2;P2;SDS_P1;SDS_P2;PMS_P1;PMS_P2;Temp;Humidity;BMP_temperature;BMP_pressure;BME280_temperature;BME280_humidity;BME280_pressure;Samples;Min_cycle;Max_cycle;Signal;HPM_P1;HPM_P2
2021/12/12 00:00:37;;;;;;;29.67;11.55;;;2.10;99.90;;;;;;5011864;28;20037;-68
2021/12/12 00:03:15;;;;;;;32.20;12.43;;;2.10;99.90;;;;;;5013343;28;20030;-68
2021/12/12 00:05:45;;;;;;;28.77;10.98;;;2.00;99.90;;;;;;5020712;28;20064;-67
2021/12/12 00:08:12;;;;;;;34.35;12.15;;;2.10;99.90;;;;;;5015925;28;20038;-66
2021/12/12 00:10:42;;;;;;;30.40;10.95;;;2.10;99.90;;;;;;5009518;28;20078;-68
2021/12/12 00:13:13;;;;;;;28.92;10.43;;;2.10;99.90;;;;;;5021264;28;20041;-68
2021/12/12 00:15:40;;;;;;;28.83;11.30;;;2.10;99.90;;;;;;5011826;28;20034;-66
2021/12/12 00:18:06;;;;;;;27.45;9.82;;;2.10;99.90;;;;;;5022249;28;20074;-68
2021/12/12 00:20:33;;;;;;;26.00;9.70;;;2.20;99.90;;;;;;5023958;28;20440;-74
2021/12/12 00:22:59;;;;;;;26.90;10.00;;;2.20;99.90;;;;;;5025236;28;20065;-68
2021/12/12 00:25:29;;;;;;;22.58;9.23;;;2.20;99.90;;;;;;5020600;28;20387;-68
2021/12/12 00:27:55;;;;;;;29.08;9.02;;;2.20;99.90;;;;;;5027344;28;20053;-68
2021/12/12 00:30:21;;;;;;;27.48;9.55;;;2.20;99.90;;;;;;5019376;28;20033;-66
2021/12/12 00:32:49;;;;;;;25.85;9.25;;;2.20;99.90;;;;;;5012026;28;21471;-68
2021/12/12 00:35:16;;;;;;;25.65;8.32;;;2.20;99.90;;;;;;5015189;28;20034;-67
2021/12/12 00:37:43;;;;;;;21.63;7.85;;;2.20;99.90;;;;;;5016453;28;20577;-68
2021/12/12 00:40:21;;;;;;;24.13;7.82;;;2.20;99.90;;;;;;5022674;28;20481;-67
2021/12/12 00:42:47;;;;;;;29.38;8.52;;;2.20;99.90;;;;;;5005403;28;20058;-67
2021/12/12 00:45:15;;;;;;;23.58;8.55;;;2.20;99.90;;;;;;5020239;28;20049;-68
2021/12/12 00:47:43;;;;;;;21.60;7.80;;;2.20;99.90;;;;;;5014651;28;20036;-67
2021/12/12 00:50:13;;;;;;;24.05;8.00;;;2.20;99.90;;;;;;5010840;28;20044;-68
2021/12/12 00:52:42;;;;;;;22.88;7.60;;;2.20;99.90;;;;;;5004767;28;20108;-66
2021/12/12 00:55:08;;;;;;;23.83;7.85;;;2.20;99.90;;;;;;5009808;28;20498;-67
2021/12/12 00:57:34;;;;;;;23.65;8.10;;;2.30;99.90;;;;;;5023605;28;20033;-73
2021/12/12 01:00:00;;;;;;;21.00;8.13;;;2.20;99.90;;;;;;5016234;28;20026;-67
2021/12/12 01:02:30;;;;;;;17.85;7.68;;;2.20;99.90;;;;;;5023035;28;20040;-67
2021/12/12 01:04:58;;;;;;;24.95;8.18;;;2.20;99.90;;;;;;5020113;28;20635;-67
2021/12/12 01:07:32;;;;;;;27.55;7.97;;;2.20;99.90;;;;;;5022187;28;20025;-71
2021/12/12 01:10:19;;;;;;;20.67;6.93;;;2.30;99.90;;;;;;5016608;28;20033;-67
2021/12/12 01:12:45;;;;;;;17.00;6.35;;;2.20;99.90;;;;;;5022295;28;20037;-69
2021/12/12 01:15:26;;;;;;;18.20;7.78;;;2.20;99.90;;;;;;5015198;28;20434;-70
2021/12/12 01:17:56;;;;;;;18.60;7.18;;;2.30;99.90;;;;;;5002395;28;20038;-66
2021/12/12 01:20:51;;;;;;;18.40;7.25;;;2.20;99.90;;;;;;5013549;28;20037;-69
2021/12/12 01:23:29;;;;;;;19.35;6.80;;;2.20;99.90;;;;;;5022734;28;20061;-69
2021/12/12 01:25:58;;;;;;;17.90;6.85;;;2.20;99.90;;;;;;4997672;28;20026;-67
2021/12/12 01:28:27;;;;;;;16.10;6.35;;;2.20;99.90;;;;;;5017656;28;20498;-67
2021/12/12 01:30:55;;;;;;;20.92;6.90;;;2.20;99.90;;;;;;5021761;28;20062;-67
2021/12/12 01:33:32;;;;;;;14.65;5.90;;;2.20;99.90;;;;;;5014191;28;20042;-69
2021/12/12 01:36:06;;;;;;;20.70;7.07;;;2.10;99.90;;;;;;5003137;28;20060;-67
2021/12/12 01:38:56;;;;;;;23.30;6.53;;;2.20;99.90;;;;;;5016028;28;20057;-67
2021/12/12 01:41:39;;;;;;;21.65;6.72;;;2.20;99.90;;;;;;5008956;28;20442;-67
2021/12/12 01:44:22;;;;;;;20.15;6.18;;;2.10;99.90;;;;;;4994419;28;20029;-67
2021/12/12 01:46:57;;;;;;;16.58;5.68;;;2.20;99.90;;;;;;5013189;28;20049;-68
2021/12/12 01:49:26;;;;;;;15.00;5.53;;;2.20;99.90;;;;;;5007787;28;20040;-66
2021/12/12 01:51:52;;;;;;;19.10;6.63;;;2.20;99.90;;;;;;5008292;28;20104;-65
2021/12/12 01:54:30;;;;;;;16.17;6.40;;;2.20;99.90;;;;;;5019032;28;20037;-71
2021/12/12 01:56:59;;;;;;;16.45;5.75;;;2.20;99.90;;;;;;5006175;28;20551;-66
2021/12/12 01:59:31;;;;;;;15.65;6.43;;;2.10;99.90;;;;;;5014539;28;20029;-69
2021/12/12 02:02:08;;;;;;;20.58;6.47;;;2.10;99.90;;;;;;5014623;28;20040;-70
2021/12/12 02:04:39;;;;;;;17.20;6.93;;;2.10;99.90;;;;;;5017471;28;20036;-68
2021/12/12 02:07:08;;;;;;;13.80;5.80;;;2.10;99.90;;;;;;5017713;28;20021;-69
2021/12/12 02:09:34;;;;;;;17.30;6.15;;;2.10;99.90;;;;;;5020357;28;20109;-67
2021/12/12 02:12:01;;;;;;;18.23;6.85;;;2.10;99.90;;;;;;5018505;28;20617;-72
2021/12/12 02:14:29;;;;;;;21.85;6.35;;;2.10;99.90;;;;;;5006998;28;20177;-68
2021/12/12 02:17:04;;;;;;;17.05;6.43;;;2.10;99.90;;;;;;5014827;28;20029;-69
2021/12/12 02:19:39;;;;;;;20.23;6.60;;;2.10;99.90;;;;;;5006529;28;20573;-69
2021/12/12 02:35:50;;;;;;;20.20;6.07;;;2.00;99.90;;;;;;5026317;28;20593;-67
2021/12/12 02:38:25;;;;;;;17.40;7.13;;;2.00;99.90;;;;;;5012537;28;20030;-66
2021/12/12 02:40:58;;;;;;;19.30;6.70;;;2.10;99.90;;;;;;5010407;28;20038;-65
2021/12/12 02:43:26;;;;;;;16.83;6.30;;;2.00;99.90;;;;;;5013379;28;20034;-69
2021/12/12 02:45:56;;;;;;;21.30;6.25;;;2.00;99.90;;;;;;5011725;28;20034;-68
2021/12/12 02:48:34;;;;;;;23.02;6.28;;;2.00;99.90;;;;;;5012941;28;20470;-67
2021/12/12 02:51:05;;;;;;;19.92;6.47;;;2.00;99.90;;;;;;5018514;28;20787;-67
2021/12/12 02:53:35;;;;;;;14.90;6.63;;;2.00;99.90;;;;;;5018162;28;20117;-66
2021/12/12 02:56:11;;;;;;;12.70;4.20;;;2.00;99.90;;;;;;5018685;28;20033;-69
2021/12/12 02:58:39;;;;;;;14.18;5.93;;;2.00;99.90;;;;;;5020266;28;20053;-69
2021/12/12 03:01:24;;;;;;;16.85;6.25;;;2.00;99.90;;;;;;5014716;28;20712;-68
2021/12/12 03:03:52;;;;;;;22.05;6.82;;;2.00;99.90;;;;;;5014050;28;20068;-66
2021/12/12 03:06:21;;;;;;;19.92;6.05;;;2.00;99.90;;;;;;5024940;28;20068;-68
2021/12/12 03:08:50;;;;;;;15.40;6.68;;;2.00;99.90;;;;;;5014051;28;20057;-67
2021/12/12 03:11:16;;;;;;;17.83;6.72;;;2.00;99.90;;;;;;5015186;28;20517;-67
2021/12/12 03:13:43;;;;;;;19.60;6.13;;;2.00;99.90;;;;;;5018055;28;20033;-73
2021/12/12 03:16:09;;;;;;;14.70;5.80;;;2.00;99.90;;;;;;5009783;28;20045;-67
2021/12/12 03:18:41;;;;;;;14.68;6.13;;;2.00;99.90;;;;;;5012491;28;20034;-67
2021/12/12 03:21:20;;;;;;;16.05;5.63;;;1.90;99.90;;;;;;5020987;28;20037;-68
2021/12/12 03:23:53;;;;;;;12.00;5.85;;;1.90;99.90;;;;;;5001779;28;20030;-73
2021/12/12 03:26:19;;;;;;;16.27;5.53;;;1.90;99.90;;;;;;5017997;28;20561;-67
2021/12/12 03:28:50;;;;;;;16.25;5.80;;;1.90;99.90;;;;;;5016288;28;20092;-72
2021/12/12 03:31:23;;;;;;;16.83;5.88;;;1.90;99.90;;;;;;5014626;28;20072;-65
2021/12/12 03:33:49;;;;;;;15.38;6.65;;;1.90;99.90;;;;;;5009907;28;20070;-67
2021/12/12 03:36:16;;;;;;;18.88;6.40;;;1.90;99.90;;;;;;5026223;28;20029;-68
2021/12/12 03:38:49;;;;;;;17.35;6.00;;;1.90;99.90;;;;;;5023333;28;20065;-66
2021/12/12 03:41:19;;;;;;;15.48;6.07;;;1.90;99.90;;;;;;5009005;28;20386;-67
2021/12/12 03:43:50;;;;;;;15.43;6.05;;;1.90;99.90;;;;;;5017514;28;20355;-73
2021/12/12 03:46:16;;;;;;;18.63;6.57;;;1.90;99.90;;;;;;5021276;28;20104;-66
2021/12/12 03:48:43;;;;;;;20.15;6.25;;;1.90;99.90;;;;;;5011402;28;20709;-66
2021/12/12 03:51:11;;;;;;;15.80;6.15;;;1.90;99.90;;;;;;5014832;28;20037;-68
2021/12/12 03:53:38;;;;;;;13.80;6.05;;;1.90;99.90;;;;;;5007919;28;20061;-68
2021/12/12 03:56:06;;;;;;;15.02;5.97;;;1.80;99.90;;;;;;5016413;28;20615;-68
2021/12/12 03:58:32;;;;;;;14.40;6.13;;;1.90;99.90;;;;;;5022989;28;20049;-68
2021/12/12 04:01:08;;;;;;;17.35;6.65;;;1.90;99.90;;;;;;5016103;28;20034;-67
2021/12/12 04:03:35;;;;;;;20.25;6.35;;;1.90;99.90;;;;;;5009916;28;20429;-67
2021/12/12 04:06:05;;;;;;;19.08;6.53;;;1.90;99.90;;;;;;5016090;28;20424;-67
2021/12/12 04:08:35;;;;;;;20.27;6.73;;;1.90;99.90;;;;;;5022476;28;20034;-68
2021/12/12 04:11:02;;;;;;;20.25;6.53;;;1.90;99.90;;;;;;5017254;28;20116;-68
2021/12/12 04:13:28;;;;;;;22.17;6.10;;;1.90;99.90;;;;;;5016563;28;20049;-67
2021/12/12 04:15:55;;;;;;;18.60;6.80;;;1.90;99.90;;;;;;5016383;28;20081;-66
2021/12/12 04:18:27;;;;;;;19.75;6.00;;;1.90;99.90;;;;;;5026803;28;20478;-67
2021/12/12 04:20:54;;;;;;;14.73;6.25;;;1.90;99.90;;;;;;5018678;28;20240;-68
2021/12/12 04:23:23;;;;;;;21.25;7.18;;;1.90;99.90;;;;;;5017206;28;20030;-66
2021/12/12 04:25:49;;;;;;;19.30;6.68;;;1.90;99.90;;;;;;5019339;28;20095;-73
2021/12/12 04:28:16;;;;;;;19.48;6.88;;;1.90;99.90;;;;;;5028814;28;20044;-69
2021/12/12 04:30:44;;;;;;;19.27;7.80;;;1.90;99.90;;;;;;5017027;28;20412;-67
2021/12/12 04:33:09;;;;;;;24.55;7.25;;;1.80;99.90;;;;;;5016148;28;20965;-66
2021/12/12 04:35:35;;;;;;;21.13;7.50;;;1.80;99.90;;;;;;5009378;28;20060;-68
2021/12/12 04:38:03;;;;;;;18.30;7.65;;;1.90;99.90;;;;;;5008033;28;20018;-67
2021/12/12 04:40:31;;;;;;;22.08;8.32;;;1.90;99.90;;;;;;5013028;28;20037;-67
2021/12/12 04:42:58;;;;;;;17.40;7.30;;;1.80;99.90;;;;;;5006110;28;20025;-67
2021/12/12 04:46:06;;;;;;;28.15;8.25;;;1.90;99.90;;;;;;5021590;28;20963;-66
2021/12/12 04:52:00;;;;;;;17.38;7.30;;;2.00;99.90;;;;;;5012953;28;20091;-67
2021/12/12 04:54:47;;;;;;;23.05;6.63;;;2.00;99.90;;;;;;5014473;28;20045;-72
2021/12/12 04:57:20;;;;;;;19.95;7.30;;;2.00;99.90;;;;;;5022734;28;20037;-71
2021/12/12 04:59:49;;;;;;;17.98;7.38;;;1.90;99.90;;;;;;5016808;28;20034;-67
2021/12/12 05:02:28;;;;;;;28.80;7.82;;;1.90;99.90;;;;;;5014682;28;20386;-67
2021/12/12 05:04:59;;;;;;;17.58;7.28;;;2.00;99.90;;;;;;5017770;28;20037;-66
2021/12/12 05:07:45;;;;;;;23.15;7.95;;;2.00;99.90;;;;;;5011383;28;20080;-67
2021/12/12 05:10:19;;;;;;;18.40;7.50;;;2.00;99.90;;;;;;5009353;28;20616;-67
2021/12/12 05:13:18;;;;;;;17.80;7.50;;;2.00;99.90;;;;;;5025204;28;20044;-68
2021/12/12 05:15:48;;;;;;;18.65;7.00;;;1.90;99.90;;;;;;5001842;28;20047;-66
2021/12/12 05:18:28;;;;;;;23.00;7.93;;;1.90;99.90;;;;;;5010339;28;20053;-65
2021/12/12 05:21:08;;;;;;;20.83;7.85;;;2.00;99.90;;;;;;5020945;28;20279;-67
2021/12/12 05:23:37;;;;;;;16.30;5.95;;;2.00;99.90;;;;;;4995542;28;20113;-66
2021/12/12 05:26:10;;;;;;;20.90;8.25;;;1.90;99.90;;;;;;5016478;28;20025;-68
2021/12/12 05:28:42;;;;;;;26.73;9.05;;;2.00;99.90;;;;;;5016651;28;20033;-66
2021/12/12 05:31:11;;;;;;;25.13;8.55;;;2.00;99.90;;;;;;5013290;28;20038;-66
2021/12/12 05:33:40;;;;;;;22.05;8.85;;;2.00;99.90;;;;;;5007577;28;20058;-68
2021/12/12 05:36:08;;;;;;;20.98;8.45;;;2.00;99.90;;;;;;5008886;28;20069;-66
2021/12/12 05:38:34;;;;;;;25.40;8.55;;;2.00;99.90;;;;;;5014945;28;20076;-64
2021/12/12 05:41:00;;;;;;;21.80;8.73;;;1.90;99.90;;;;;;4997462;28;20120;-67
2021/12/12 05:43:26;;;;;;;21.58;8.45;;;1.80;99.90;;;;;;5001411;28;20489;-65
2021/12/12 05:45:52;;;;;;;24.73;8.25;;;1.70;99.90;;;;;;4996293;28;20026;-73
2021/12/12 05:48:21;;;;;;;23.42;8.38;;;1.60;99.90;;;;;;5000860;28;20112;-66
2021/12/12 05:50:47;;;;;;;21.27;8.07;;;1.50;99.90;;;;;;5006395;28;20034;-72
2021/12/12 05:53:14;;;;;;;22.92;8.30;;;1.40;99.90;;;;;;5006675;28;20108;-66
2021/12/12 05:55:41;;;;;;;24.25;8.82;;;1.30;99.90;;;;;;4999687;28;20041;-67
2021/12/12 05:58:10;;;;;;;23.15;9.05;;;1.30;99.90;;;;;;4995147;28;20029;-67
2021/12/12 06:00:45;;;;;;;24.17;8.55;;;1.30;99.90;;;;;;5005780;28;20530;-65
2021/12/12 06:03:13;;;;;;;21.65;8.48;;;1.20;99.90;;;;;;5001428;28;20128;-67
2021/12/12 06:05:40;;;;;;;29.70;9.02;;;1.20;99.90;;;;;;4999502;28;20045;-65
2021/12/12 06:08:06;;;;;;;22.63;8.60;;;1.20;99.90;;;;;;5001657;28;20096;-68
2021/12/12 06:10:34;;;;;;;24.58;9.63;;;1.20;99.90;;;;;;4998740;28;20089;-67
2021/12/12 06:13:01;;;;;;;22.15;8.38;;;1.10;99.90;;;;;;4998122;28;20109;-67
2021/12/12 06:15:30;;;;;;;24.98;8.77;;;1.00;99.90;;;;;;5001425;28;20046;-69
2021/12/12 06:17:57;;;;;;;21.25;8.45;;;1.00;99.90;;;;;;4996697;28;20034;-73
2021/12/12 06:20:23;;;;;;;24.27;8.73;;;0.80;99.90;;;;;;4998777;28;20150;-71
2021/12/12 06:22:50;;;;;;;21.25;8.30;;;0.70;99.90;;;;;;5002205;28;20030;-68
2021/12/12 06:25:17;;;;;;;22.60;8.60;;;0.60;99.90;;;;;;5001691;28;20026;-68
2021/12/12 06:27:43;;;;;;;24.75;9.07;;;0.50;99.90;;;;;;4998988;28;20058;-69
2021/12/12 06:30:13;;;;;;;24.90;9.20;;;0.50;99.90;;;;;;5006587;28;20033;-69
2021/12/12 06:32:40;;;;;;;24.77;8.88;;;0.40;99.90;;;;;;5000220;28;20495;-66
2021/12/12 06:35:09;;;;;;;23.45;8.63;;;0.50;99.90;;;;;;5006838;28;20068;-69
2021/12/12 06:37:35;;;;;;;20.10;8.90;;;0.50;99.90;;;;;;5007222;28;20033;-68
2021/12/12 06:40:03;;;;;;;24.98;8.32;;;0.50;99.90;;;;;;5002531;28;20164;-67
2021/12/12 06:42:29;;;;;;;20.90;8.35;;;0.50;99.90;;;;;;5007558;28;20037;-67
2021/12/12 06:44:55;;;;;;;22.33;8.55;;;0.40;99.90;;;;;;5007880;28;20550;-73
2021/12/12 06:47:21;;;;;;;24.30;9.20;;;0.30;99.90;;;;;;5006128;28;20033;-67
2021/12/12 06:49:47;;;;;;;21.63;9.25;;;0.30;99.90;;;;;;5016187;28;20137;-68
2021/12/12 06:52:15;;;;;;;23.92;8.93;;;0.30;99.90;;;;;;5003075;28;20110;-66
2021/12/12 06:54:41;;;;;;;22.23;9.20;;;0.30;99.90;;;;;;4997113;28;20043;-67
2021/12/12 06:57:10;;;;;;;25.40;9.60;;;0.30;99.90;;;;;;5027697;28;20030;-67
2021/12/12 06:59:39;;;;;;;23.33;8.60;;;0.30;99.90;;;;;;4989048;28;20045;-66
2021/12/12 07:02:06;;;;;;;24.15;8.82;;;0.30;99.90;;;;;;5000412;28;20188;-69
2021/12/12 07:04:34;;;;;;;22.90;9.13;;;0.30;99.90;;;;;;5005377;28;20439;-66
2021/12/12 07:07:03;;;;;;;18.80;8.77;;;0.20;99.90;;;;;;5007068;28;20026;-65
2021/12/12 07:09:31;;;;;;;25.08;9.82;;;0.20;99.90;;;;;;5010886;28;20040;-66
2021/12/12 07:12:00;;;;;;;23.65;9.48;;;0.20;99.90;;;;;;5008295;28;20026;-74
2021/12/12 07:14:26;;;;;;;23.38;9.40;;;0.20;99.90;;;;;;5005479;28;20041;-69
2021/12/12 07:16:55;;;;;;;22.45;8.70;;;0.20;99.90;;;;;;5007669;28;20034;-68
2021/12/12 07:19:22;;;;;;;21.90;8.80;;;0.20;99.90;;;;;;5010063;28;20030;-66
2021/12/12 07:21:48;;;;;;;24.75;9.95;;;0.10;99.90;;;;;;5009639;28;20042;-68
2021/12/12 07:24:15;;;;;;;25.13;9.32;;;0.00;99.90;;;;;;5011930;28;20641;-68
2021/12/12 07:26:41;;;;;;;23.65;10.05;;;0.00;99.90;;;;;;5013419;28;20041;-68
2021/12/12 07:29:07;;;;;;;26.25;10.40;;;0.00;99.90;;;;;;5011213;28;20113;-69
2021/12/12 07:31:37;;;;;;;22.27;8.98;;;0.10;99.90;;;;;;5011873;28;20176;-70
2021/12/12 07:34:09;;;;;;;25.45;10.23;;;0.10;99.90;;;;;;5008599;28;20441;-68
2021/12/12 07:36:39;;;;;;;30.42;11.23;;;0.10;99.90;;;;;;5011024;28;20034;-68
2021/12/12 07:39:12;;;;;;;21.92;9.30;;;0.10;99.90;;;;;;5009748;28;20022;-69
2021/12/12 07:41:40;;;;;;;25.20;8.52;;;0.10;99.90;;;;;;5007979;28;20393;-68
2021/12/12 07:44:08;;;;;;;24.48;9.35;;;0.10;99.90;;;;;;5009773;28;20037;-69
2021/12/12 07:46:36;;;;;;;28.90;11.55;;;0.10;99.90;;;;;;5006051;28;20034;-69
2021/12/12 07:49:03;;;;;;;28.58;10.98;;;0.10;99.90;;;;;;5009188;28;20077;-68
2021/12/12 07:51:31;;;;;;;34.92;13.77;;;0.10;99.90;;;;;;5025169;28;20088;-67
2021/12/12 07:53:58;;;;;;;39.03;15.30;;;0.10;99.90;;;;;;5011990;28;20041;-75
2021/12/12 07:56:27;;;;;;;37.58;16.35;;;0.20;99.90;;;;;;5010424;28;20034;-72
2021/12/12 07:58:53;;;;;;;41.70;17.63;;;0.20;99.90;;;;;;5007188;28;20038;-72
2021/12/12 08:01:19;;;;;;;107.93;38.55;;;0.30;99.90;;;;;;5010982;28;20052;-72
2021/12/12 08:03:45;;;;;;;85.07;30.45;;;0.30;99.90;;;;;;5006521;28;20040;-72
2021/12/12 08:06:14;;;;;;;58.40;23.58;;;0.40;99.90;;;;;;4998519;28;20385;-73
2021/12/12 08:08:41;;;;;;;39.60;15.57;;;0.40;99.90;;;;;;5008347;28;20025;-72
2021/12/12 08:11:07;;;;;;;34.55;14.20;;;0.50;99.90;;;;;;5008590;28;20034;-71
2021/12/12 08:13:35;;;;;;;31.25;12.40;;;0.60;99.90;;;;;;5009274;28;20388;-73
2021/12/12 08:16:05;;;;;;;30.00;11.73;;;0.70;99.90;;;;;;5015836;28;20032;-72
2021/12/12 08:18:32;;;;;;;26.08;10.43;;;0.80;99.90;;;;;;5008549;28;20025;-70
2021/12/12 08:21:00;;;;;;;23.80;9.80;;;0.90;99.90;;;;;;5007770;28;20026;-74
2021/12/12 08:23:25;;;;;;;24.67;9.25;;;1.00;99.90;;;;;;5007321;28;20061;-72
2021/12/12 08:25:54;;;;;;;24.95;9.40;;;1.10;99.90;;;;;;5009449;28;20088;-72
2021/12/12 08:28:21;;;;;;;19.92;8.68;;;1.10;99.90;;;;;;5004154;28;20461;-73
2021/12/12 08:30:49;;;;;;;20.00;8.43;;;1.20;99.90;;;;;;5008456;28;20034;-72
2021/12/12 08:33:15;;;;;;;16.38;7.35;;;1.30;99.90;;;;;;5000756;28;20022;-72
2021/12/12 08:35:43;;;;;;;19.40;8.38;;;1.50;99.90;;;;;;5010081;28;20084;-71
2021/12/12 08:38:10;;;;;;;19.85;7.32;;;1.60;99.90;;;;;;5007284;28;20033;-72
2021/12/12 08:40:46;;;;;;;17.80;7.82;;;1.70;99.90;;;;;;5010312;28;20540;-73
2021/12/12 08:43:14;;;;;;;19.20;8.05;;;1.70;99.90;;;;;;5009116;28;20033;-74
2021/12/12 08:45:53;;;;;;;15.43;6.82;;;1.80;99.90;;;;;;5012400;28;20026;-70
2021/12/12 08:48:21;;;;;;;17.08;7.53;;;1.80;99.90;;;;;;5008315;28;20233;-72
2021/12/12 08:50:50;;;;;;;17.10;7.35;;;1.90;99.90;;;;;;5004116;28;20715;-67
2021/12/12 08:53:18;;;;;;;18.92;6.40;;;2.00;99.90;;;;;;5013173;28;20679;-73
2021/12/12 08:55:48;;;;;;;15.35;6.40;;;2.00;99.90;;;;;;5007795;28;20477;-73
2021/12/12 08:58:17;;;;;;;14.33;6.20;;;2.10;99.90;;;;;;5007402;28;20034;-72
2021/12/12 09:01:09;;;;;;;13.23;6.13;;;2.30;99.90;;;;;;5012312;28;20123;-73
2021/12/12 09:03:43;;;;;;;12.98;4.95;;;2.40;99.90;;;;;;5000718;28;20044;-74
2021/12/12 09:06:12;;;;;;;16.92;6.85;;;2.40;99.90;;;;;;5008140;28;20079;-72
2021/12/12 09:08:41;;;;;;;10.20;4.65;;;2.60;99.90;;;;;;5009224;28;20032;-72
2021/12/12 09:11:27;;;;;;;11.45;5.40;;;2.80;99.90;;;;;;5009133;28;20498;-73
2021/12/12 09:14:15;;;;;;;9.63;4.65;;;2.80;99.90;;;;;;5014454;28;20099;-72
2021/12/12 09:16:43;;;;;;;10.48;4.47;;;2.80;99.90;;;;;;5009303;28;20053;-72
2021/12/12 09:19:19;;;;;;;9.93;4.20;;;2.90;99.90;;;;;;5010455;28;20113;-72
2021/12/12 09:21:54;;;;;;;8.88;4.30;;;3.10;99.90;;;;;;5010221;28;20065;-73
2021/12/12 09:24:31;;;;;;;9.15;4.03;;;3.30;99.90;;;;;;5008655;28;20049;-71
2021/12/12 09:27:08;;;;;;;7.53;4.03;;;3.50;99.90;;;;;;5008870;28;20042;-75
2021/12/12 09:29:41;;;;;;;11.23;4.90;;;3.60;99.90;;;;;;5007425;28;20084;-71
2021/12/12 09:32:24;;;;;;;13.50;4.00;;;3.70;99.90;;;;;;5014816;28;20033;-73
2021/12/12 09:34:58;;;;;;;9.82;4.55;;;3.80;99.90;;;;;;4995017;28;20491;-72
2021/12/12 09:37:38;;;;;;;9.65;4.18;;;3.80;99.90;;;;;;5007389;28;20635;-74
2021/12/12 09:40:27;;;;;;;12.10;4.37;;;3.70;99.90;;;;;;5010625;28;20924;-70
2021/12/12 09:43:11;;;;;;;9.55;4.10;;;3.50;99.90;;;;;;5009745;28;20744;-72
2021/12/12 09:46:01;;;;;;;7.57;3.45;;;3.50;99.90;;;;;;5014768;28;20297;-72
2021/12/12 09:52:01;;;;;;;9.30;3.67;;;3.40;99.90;;;;;;5013638;28;20046;-72
2021/12/12 09:54:48;;;;;;;7.95;3.47;;;3.40;99.90;;;;;;5022819;28;20037;-72
2021/12/12 09:57:52;;;;;;;8.38;3.67;;;3.40;99.90;;;;;;5005841;28;20026;-71
2021/12/12 10:00:44;;;;;;;7.65;3.20;;;3.40;99.90;;;;;;5007084;28;20054;-69
2021/12/12 10:03:22;;;;;;;8.82;3.63;;;3.50;99.90;;;;;;5004877;28;20038;-70
2021/12/12 10:05:53;;;;;;;7.70;3.72;;;3.50;99.90;;;;;;5013811;28;20038;-70
2021/12/12 10:08:30;;;;;;;8.02;3.20;;;3.50;99.90;;;;;;5013478;28;20044;-69
2021/12/12 10:11:09;;;;;;;9.15;3.95;;;3.60;99.90;;;;;;5010211;28;20046;-70
2021/12/12 10:14:06;;;;;;;7.85;3.40;;;3.60;99.90;;;;;;5010697;28;20057;-71
2021/12/12 10:17:00;;;;;;;7.57;3.47;;;3.70;99.90;;;;;;5005047;28;21700;-70
2021/12/12 10:19:43;;;;;;;9.18;3.95;;;3.70;99.90;;;;;;5008938;28;20044;-69
2021/12/12 10:22:23;;;;;;;7.50;3.38;;;3.60;99.90;;;;;;4994345;28;20522;-70
2021/12/12 10:25:14;;;;;;;7.78;3.53;;;3.60;99.90;;;;;;5011224;28;20034;-69
2021/12/12 10:28:06;;;;;;;7.63;3.80;;;3.70;99.90;;;;;;4989689;28;20120;-68
2021/12/12 10:30:43;;;;;;;8.07;3.85;;;3.80;99.90;;;;;;5009866;28;20034;-68
2021/12/12 10:33:34;;;;;;;9.25;4.03;;;3.90;99.90;;;;;;5013252;28;20044;-69
2021/12/12 10:36:04;;;;;;;8.45;3.78;;;3.90;99.90;;;;;;5019825;28;20041;-70
2021/12/12 10:39:06;;;;;;;9.43;4.25;;;3.90;99.90;;;;;;5009149;28;20109;-68
2021/12/12 10:41:46;;;;;;;9.70;3.47;;;3.90;99.90;;;;;;4992788;28;20049;-69
2021/12/12 10:44:46;;;;;;;10.82;4.05;;;3.90;99.90;;;;;;5010022;28;20493;-68
2021/12/12 10:47:28;;;;;;;7.70;3.50;;;4.00;99.90;;;;;;5020072;28;20025;-70
2021/12/12 10:50:07;;;;;;;6.32;3.17;;;4.00;99.90;;;;;;5005821;28;20367;-69
2021/12/12 10:53:04;;;;;;;7.80;3.90;;;4.00;99.90;;;;;;5012850;28;20050;-71
2021/12/12 10:55:33;;;;;;;9.05;3.53;;;4.00;99.90;;;;;;5006196;28;20030;-70
2021/12/12 10:58:10;;;;;;;10.02;4.40;;;4.00;99.90;;;;;;5010993;28;20034;-70
2021/12/12 11:00:43;;;;;;;9.98;4.15;;;4.00;99.90;;;;;;5012558;28;20026;-69
2021/12/12 11:03:18;;;;;;;10.05;4.22;;;4.00;99.90;;;;;;5012525;28;20060;-69
2021/12/12 11:06:07;;;;;;;9.15;4.13;;;4.10;99.90;;;;;;5014808;28;20092;-70
2021/12/12 11:08:50;;;;;;;9.90;3.72;;;4.10;99.90;;;;;;5012811;28;20053;-70
2021/12/12 11:11:20;;;;;;;6.75;3.38;;;4.10;99.90;;;;;;5010388;28;20418;-69
2021/12/12 11:13:59;;;;;;;7.78;3.92;;;4.20;99.90;;;;;;5015834;28;20037;-69
2021/12/12 11:16:30;;;;;;;9.23;4.05;;;4.40;99.90;;;;;;5006714;28;20030;-70
2021/12/12 11:19:17;;;;;;;8.38;4.20;;;4.40;99.90;;;;;;5013074;28;20108;-69
2021/12/12 11:21:55;;;;;;;8.77;3.08;;;4.40;99.90;;;;;;5012706;28;20064;-71
2021/12/12 11:24:33;;;;;;;11.18;4.50;;;4.20;99.90;;;;;;5012676;28;20494;-69
2021/12/12 11:27:10;;;;;;;8.43;3.72;;;4.10;99.90;;;;;;5013568;28;20137;-69
2021/12/12 11:29:44;;;;;;;9.02;3.85;;;4.10;99.90;;;;;;5016712;28;20040;-69
2021/12/12 11:32:16;;;;;;;8.23;3.95;;;4.10;99.90;;;;;;5000828;28;20037;-71
2021/12/12 11:34:50;;;;;;;9.52;4.00;;;4.20;99.90;;;;;;5014335;28;20030;-69
2021/12/12 11:37:30;;;;;;;8.07;3.97;;;4.30;99.90;;;;;;5014883;28;20045;-69
2021/12/12 11:40:28;;;;;;;7.18;3.13;;;4.40;99.90;;;;;;5016441;28;20021;-69
2021/12/12 11:42:58;;;;;;;9.85;3.88;;;4.40;99.90;;;;;;5020302;28;20042;-70
2021/12/12 11:45:29;;;;;;;8.10;3.60;;;4.40;99.90;;;;;;5022378;28;20113;-69
2021/12/12 11:48:23;;;;;;;7.43;3.63;;;4.50;99.90;;;;;;5018793;28;20040;-70
2021/12/12 11:50:55;;;;;;;10.40;3.80;;;4.50;99.90;;;;;;5017498;28;20318;-69
2021/12/12 11:53:23;;;;;;;8.93;3.85;;;4.50;99.90;;;;;;5020089;28;20057;-67
2021/12/12 11:56:21;;;;;;;6.40;3.17;;;4.60;99.90;;;;;;5011669;28;20072;-68
2021/12/12 11:59:00;;;;;;;6.97;3.30;;;4.60;99.90;;;;;;5010374;28;20038;-71
2021/12/12 12:01:51;;;;;;;8.90;3.53;;;4.50;99.90;;;;;;5012297;28;20459;-70
2021/12/12 12:04:35;;;;;;;7.00;3.13;;;4.60;99.90;;;;;;5014030;28;20057;-69
2021/12/12 12:07:23;;;;;;;6.70;3.50;;;4.60;99.90;;;;;;5007323;28;20040;-69
2021/12/12 12:10:18;;;;;;;8.90;3.50;;;4.60;99.90;;;;;;5007443;28;20034;-70
2021/12/12 12:13:08;;;;;;;9.35;3.92;;;4.60;99.90;;;;;;5012336;28;20080;-69
2021/12/12 12:15:53;;;;;;;6.97;3.13;;;4.60;99.90;;;;;;5008385;28;20105;-70
2021/12/12 12:18:34;;;;;;;8.95;3.90;;;4.60;99.90;;;;;;4998799;28;20550;-69
2021/12/12 12:21:24;;;;;;;7.05;3.88;;;4.60;99.90;;;;;;5012116;28;20132;-68
2021/12/12 12:24:22;;;;;;;7.57;3.70;;;4.60;99.90;;;;;;5014267;28;20037;-71
2021/12/12 12:27:07;;;;;;;7.93;3.33;;;4.60;99.90;;;;;;4986410;28;20128;-70
2021/12/12 12:30:00;;;;;;;10.18;3.53;;;4.60;99.90;;;;;;5009944;28;20034;-70
2021/12/12 12:32:54;;;;;;;7.18;3.50;;;4.60;99.90;;;;;;5009853;28;20061;-70
2021/12/12 12:35:42;;;;;;;8.73;3.72;;;4.60;99.90;;;;;;5015106;28;20088;-69
2021/12/12 12:38:50;;;;;;;12.63;3.78;;;4.60;99.90;;;;;;5011258;28;20499;-73
2021/12/12 12:41:40;;;;;;;8.02;3.75;;;4.60;99.90;;;;;;5009435;28;20445;-69
2021/12/12 12:44:43;;;;;;;7.88;3.53;;;4.60;99.90;;;;;;5017366;28;20022;-68
2021/12/12 12:47:46;;;;;;;7.47;3.70;;;4.50;99.90;;;;;;5014360;28;20033;-73
2021/12/12 12:50:42;;;;;;;7.53;3.63;;;4.60;99.90;;;;;;5007978;28;20109;-74
2021/12/12 12:53:38;;;;;;;10.30;3.63;;;4.50;99.90;;;;;;5008471;28;20591;-70
2021/12/12 12:56:48;;;;;;;9.07;4.00;;;4.50;99.90;;;;;;5028407;28;20083;-69
2021/12/12 12:59:23;;;;;;;9.88;4.18;;;4.50;99.90;;;;;;5018067;28;20025;-72
2021/12/12 13:02:19;;;;;;;13.00;3.88;;;4.50;99.90;;;;;;5007995;28;20044;-69
2021/12/12 13:04:57;;;;;;;9.90;3.83;;;4.60;99.90;;;;;;5003528;28;20037;-69
2021/12/12 13:07:29;;;;;;;10.20;4.50;;;4.70;99.90;;;;;;5014262;28;20096;-70
2021/12/12 13:10:08;;;;;;;10.70;4.85;;;4.70;99.90;;;;;;5013547;28;20034;-71
2021/12/12 13:12:56;;;;;;;10.02;4.70;;;4.80;99.90;;;;;;5024130;28;20033;-70
2021/12/12 13:15:47;;;;;;;8.68;3.97;;;4.80;99.90;;;;;;5014989;28;20048;-69
2021/12/12 13:18:26;;;;;;;;;;;4.70;99.90;;;;;;5025916;28;20036;-73
2021/12/12 13:21:21;;;;;;;8.45;3.83;;;4.70;99.90;;;;;;5017329;28;19918;-70
2021/12/12 13:24:00;;;;;;;8.60;4.03;;;4.70;99.90;;;;;;5016311;28;20025;-70
2021/12/12 13:27:12;;;;;;;10.38;4.63;;;4.70;99.90;;;;;;5015793;28;20402;-69
2021/12/12 13:30:01;;;;;;;8.70;4.05;;;4.70;99.90;;;;;;4993370;28;20136;-70
2021/12/12 13:32:55;;;;;;;10.52;4.47;;;4.70;99.90;;;;;;5012661;28;20033;-65
2021/12/12 13:35:31;;;;;;;11.60;4.43;;;4.70;99.90;;;;;;5002382;28;20046;-71
2021/12/12 13:38:06;;;;;;;11.00;4.45;;;4.60;99.90;;;;;;5006377;28;20030;-66
2021/12/12 13:40:49;;;;;;;8.88;4.05;;;4.60;99.90;;;;;;5009014;28;20048;-64
2021/12/12 13:43:38;;;;;;;11.27;5.05;;;4.60;99.90;;;;;;5007658;28;20040;-70
2021/12/12 13:46:22;;;;;;;10.87;4.97;;;4.60;99.90;;;;;;5005756;28;20057;-64